createdAt,value
2018-08-18T00:02:13.823Z,99.90
2018-08-18T00:04:45.516Z,99.90
2018-08-18T00:07:17.289Z,99.90
2018-08-18T00:09:48.642Z,99.90
2018-08-18T00:12:24.838Z,99.90
2018-08-18T00:14:56.153Z,99.90
2018-08-18T00:17:27.499Z,99.90
2018-08-18T00:19:58.954Z,99.90
2018-08-18T00:22:33.715Z,99.90
2018-08-18T00:25:06.767Z,99.90
2018-08-18T00:27:37.995Z,99.90
2018-08-18T00:30:15.969Z,99.90
2018-08-18T00:32:47.166Z,99.90
2018-08-18T00:35:19.228Z,99.90
2018-08-18T00:37:50.532Z,99.90
2018-08-18T00:40:21.664Z,99.90
2018-08-18T00:42:53.112Z,99.90
2018-08-18T00:45:24.164Z,99.90
2018-08-18T00:47:55.312Z,99.90
2018-08-18T00:50:42.412Z,99.90
2018-08-18T00:53:15.446Z,99.90
2018-08-18T00:55:47.283Z,99.90
2018-08-18T00:58:23.189Z,99.90
2018-08-18T01:00:59.404Z,99.90
2018-08-18T01:03:30.588Z,99.90
2018-08-18T01:06:23.902Z,99.90
2018-08-18T01:08:57.107Z,99.90
2018-08-18T01:11:28.560Z,99.90
2018-08-18T01:14:08.428Z,99.90
2018-08-18T01:16:45.054Z,99.90
2018-08-18T01:19:16.263Z,99.90
2018-08-18T01:21:51.961Z,99.90
2018-08-18T01:24:23.159Z,99.90
2018-08-18T01:26:54.694Z,99.90
2018-08-18T01:29:25.942Z,99.90
2018-08-18T01:31:58.416Z,99.90
2018-08-18T01:34:29.666Z,99.90
2018-08-18T01:37:23.816Z,99.90
2018-08-18T01:39:56.176Z,99.90
2018-08-18T01:42:27.450Z,99.90
2018-08-18T01:44:59.045Z,99.90
2018-08-18T01:47:30.291Z,99.90
2018-08-18T01:50:06.756Z,99.90
2018-08-18T01:52:39.072Z,99.90
2018-08-18T01:55:10.684Z,99.90
2018-08-18T01:57:42.574Z,99.90
2018-08-18T02:00:27.203Z,99.90
2018-08-18T02:02:58.459Z,99.90
2018-08-18T02:05:29.626Z,99.90
2018-08-18T02:08:00.834Z,99.90
2018-08-18T02:10:32.291Z,99.90
2018-08-18T02:13:05.567Z,99.90
2018-08-18T02:15:36.775Z,99.90
2018-08-18T02:18:08.016Z,99.90
2018-08-18T02:20:39.328Z,99.90
2018-08-18T02:23:10.674Z,99.90
2018-08-18T02:25:42.982Z,99.90
2018-08-18T02:28:28.806Z,99.90
2018-08-18T02:31:00.422Z,99.90
2018-08-18T02:33:32.091Z,99.90
2018-08-18T02:36:03.275Z,99.90
2018-08-18T02:38:34.827Z,99.90
2018-08-18T02:41:06.336Z,99.90
2018-08-18T02:43:37.340Z,99.90
2018-08-18T02:46:29.001Z,99.90
2018-08-18T02:49:01.288Z,99.90
2018-08-18T02:51:32.851Z,99.90
2018-08-18T02:54:04.299Z,99.90
2018-08-18T02:56:41.026Z,99.90
2018-08-18T02:59:13.451Z,99.90
2018-08-18T03:01:45.152Z,99.90
2018-08-18T03:04:16.349Z,99.90
2018-08-18T03:06:47.592Z,99.90
2018-08-18T03:09:19.229Z,99.90
2018-08-18T03:11:50.544Z,99.90
2018-08-18T03:14:21.922Z,99.90
2018-08-18T03:16:53.341Z,99.90
2018-08-18T03:19:24.711Z,99.90
2018-08-18T03:21:55.943Z,99.90
2018-08-18T03:24:27.542Z,99.90
2018-08-18T03:27:00.124Z,99.90
2018-08-18T03:29:32.356Z,99.90
2018-08-18T03:32:03.660Z,99.90
2018-08-18T03:34:34.991Z,99.90
2018-08-18T03:37:17.348Z,99.90
2018-08-18T03:39:49.465Z,99.90
2018-08-18T03:42:21.270Z,99.90
2018-08-18T03:44:56.251Z,99.90
2018-08-18T03:47:27.842Z,99.90
2018-08-18T03:49:59.046Z,99.90
2018-08-18T03:52:30.509Z,99.90
2018-08-18T03:55:01.846Z,99.90
2018-08-18T03:57:51.184Z,99.90
2018-08-18T04:00:22.481Z,99.90
2018-08-18T04:02:53.701Z,99.90
2018-08-18T04:05:25.359Z,99.90
2018-08-18T04:07:57.338Z,99.90
2018-08-18T04:10:29.371Z,99.90
2018-08-18T04:13:01.983Z,99.90
2018-08-18T04:15:33.480Z,99.90
2018-08-18T04:18:09.150Z,99.90
2018-08-18T04:20:40.297Z,99.90
2018-08-18T04:23:12.142Z,99.90
2018-08-18T04:25:43.430Z,99.90
2018-08-18T04:28:14.526Z,99.90
2018-08-18T04:30:45.833Z,99.90
2018-08-18T04:33:17.029Z,99.90
2018-08-18T04:35:52.543Z,99.90
2018-08-18T04:38:24.027Z,99.90
2018-08-18T04:40:55.103Z,99.90
2018-08-18T04:43:26.140Z,99.90
2018-08-18T04:45:57.510Z,99.90
2018-08-18T04:48:32.588Z,99.90
2018-08-18T04:51:04.128Z,99.90
2018-08-18T04:53:35.227Z,99.90
2018-08-18T04:56:06.700Z,99.90
2018-08-18T04:58:44.973Z,99.90
2018-08-18T05:01:16.104Z,99.90
2018-08-18T05:04:01.012Z,99.90
2018-08-18T05:06:33.599Z,99.90
2018-08-18T05:09:06.796Z,99.90
2018-08-18T05:11:38.098Z,99.90
2018-08-18T05:14:09.260Z,99.90
2018-08-18T05:16:40.376Z,99.90
2018-08-18T05:19:11.754Z,99.90
2018-08-18T05:21:42.918Z,99.90
2018-08-18T05:24:27.618Z,99.90
2018-08-18T05:26:59.603Z,99.90
2018-08-18T05:29:31.112Z,99.90
2018-08-18T05:32:02.439Z,99.90
2018-08-18T05:34:33.604Z,99.90
2018-08-18T05:37:04.882Z,99.90
2018-08-18T05:39:36.184Z,99.90
2018-08-18T05:42:07.471Z,99.90
2018-08-18T05:44:39.211Z,99.90
2018-08-18T05:47:10.160Z,99.90
2018-08-18T05:49:41.354Z,99.90
2018-08-18T05:52:12.751Z,99.90
2018-08-18T05:54:44.116Z,99.90
2018-08-18T05:57:15.324Z,99.90
2018-08-18T05:59:47.042Z,99.90
2018-08-18T06:02:18.199Z,99.90
2018-08-18T06:04:49.273Z,99.90
2018-08-18T06:07:20.499Z,99.90
2018-08-18T06:09:51.657Z,99.90
2018-08-18T06:12:22.677Z,99.90
2018-08-18T06:14:54.052Z,99.90
2018-08-18T06:17:30.304Z,99.90
2018-08-18T06:20:01.769Z,99.90
2018-08-18T06:22:32.956Z,99.90
2018-08-18T06:25:04.350Z,99.90
2018-08-18T06:27:35.555Z,99.90
2018-08-18T06:30:07.753Z,99.90
2018-08-18T06:32:39.098Z,99.90
2018-08-18T06:35:10.702Z,99.90
2018-08-18T06:37:47.270Z,99.90
2018-08-18T06:40:18.571Z,99.90
2018-08-18T06:42:49.824Z,99.90
2018-08-18T06:45:21.701Z,99.90
2018-08-18T06:47:53.047Z,99.90
2018-08-18T06:50:29.404Z,99.90
2018-08-18T06:53:00.660Z,99.90
2018-08-18T06:55:31.808Z,99.90
2018-08-18T06:58:03.202Z,99.90
2018-08-18T07:00:34.651Z,99.90
2018-08-18T07:03:15.608Z,99.90
2018-08-18T07:05:47.044Z,99.90
2018-08-18T07:08:18.378Z,99.90
2018-08-18T07:10:49.871Z,99.90
2018-08-18T07:13:21.772Z,99.90
2018-08-18T07:15:53.504Z,99.90
2018-08-18T07:18:24.947Z,99.90
2018-08-18T07:20:56.431Z,99.90
2018-08-18T07:23:28.060Z,99.90
2018-08-18T07:26:00.413Z,99.90
2018-08-18T07:28:31.658Z,99.90
2018-08-18T07:31:02.730Z,99.90
2018-08-18T07:33:33.863Z,99.90
2018-08-18T07:36:05.356Z,99.90
2018-08-18T07:38:36.596Z,99.90
2018-08-18T07:41:07.698Z,99.90
2018-08-18T07:43:38.851Z,99.90
2018-08-18T07:46:10.411Z,99.90
2018-08-18T07:48:41.595Z,99.90
2018-08-18T07:51:13.236Z,99.90
2018-08-18T07:53:44.592Z,99.90
2018-08-18T07:56:16.114Z,99.90
2018-08-18T07:58:47.352Z,99.90
2018-08-18T08:01:18.797Z,99.90
2018-08-18T08:03:50.098Z,99.90
2018-08-18T08:06:21.812Z,99.90
2018-08-18T08:08:53.118Z,99.90
2018-08-18T08:11:25.796Z,99.90
2018-08-18T08:13:57.204Z,99.90
2018-08-18T08:16:28.247Z,99.90
2018-08-18T08:18:59.892Z,99.90
2018-08-18T08:21:31.096Z,99.90
2018-08-18T08:24:02.205Z,99.90
2018-08-18T08:26:33.702Z,99.90
2018-08-18T08:29:05.059Z,99.90
2018-08-18T08:31:36.171Z,99.90
2018-08-18T08:34:07.566Z,99.90
2018-08-18T08:36:38.932Z,99.90
2018-08-18T08:39:10.216Z,99.90
2018-08-18T08:41:41.392Z,99.90
2018-08-18T08:44:12.753Z,99.90
2018-08-18T08:46:58.042Z,99.90
2018-08-18T08:49:29.282Z,99.90
2018-08-18T08:52:00.727Z,99.90
2018-08-18T08:54:32.576Z,99.90
2018-08-18T08:57:09.216Z,99.90
2018-08-18T08:59:41.398Z,99.90
2018-08-18T09:02:14.503Z,99.90
2018-08-18T09:04:46.062Z,99.90
2018-08-18T09:07:17.277Z,99.90
2018-08-18T09:09:48.736Z,99.90
2018-08-18T09:12:20.279Z,99.90
2018-08-18T09:14:51.876Z,99.90
2018-08-18T09:17:23.435Z,99.90
2018-08-18T09:19:54.719Z,99.90
2018-08-18T09:22:25.972Z,99.90
2018-08-18T09:25:03.150Z,99.90
2018-08-18T09:27:36.821Z,99.90
2018-08-18T09:30:08.276Z,99.90
2018-08-18T09:32:39.629Z,99.90
2018-08-18T09:35:10.803Z,99.90
2018-08-18T09:37:44.159Z,99.90
2018-08-18T09:40:15.313Z,99.90
2018-08-18T09:42:46.500Z,99.90
2018-08-18T09:45:18.158Z,99.90
2018-08-18T09:47:49.475Z,99.90
2018-08-18T09:50:21.931Z,99.90
2018-08-18T09:52:53.283Z,99.90
2018-08-18T09:55:24.889Z,99.90
2018-08-18T09:57:56.026Z,99.90
2018-08-18T10:00:32.351Z,99.90
2018-08-18T10:03:03.544Z,99.90
2018-08-18T10:05:35.240Z,99.90
2018-08-18T10:08:07.310Z,99.90
2018-08-18T10:10:38.599Z,99.90
2018-08-18T10:13:09.909Z,99.90
2018-08-18T10:15:41.619Z,99.90
2018-08-18T10:18:12.812Z,99.90
2018-08-18T10:20:49.069Z,99.90
2018-08-18T10:23:20.821Z,99.90
2018-08-18T10:25:51.907Z,99.90
2018-08-18T10:28:23.571Z,99.90
2018-08-18T10:30:54.884Z,99.90
2018-08-18T10:33:26.308Z,99.90
2018-08-18T10:35:57.684Z,99.90
2018-08-18T10:38:29.084Z,99.90
2018-08-18T10:41:02.579Z,99.90
2018-08-18T10:43:34.236Z,99.90
2018-08-18T10:46:05.676Z,99.90
2018-08-18T10:48:36.920Z,99.90
2018-08-18T10:51:33.103Z,99.90
2018-08-18T10:54:04.684Z,99.90
2018-08-18T10:56:36.121Z,99.90
2018-08-18T10:59:16.567Z,99.90
2018-08-18T11:02:04.884Z,99.90
2018-08-18T11:04:37.057Z,99.90
2018-08-18T11:07:08.387Z,99.90
2018-08-18T11:09:39.647Z,99.90
2018-08-18T11:12:10.799Z,99.90
2018-08-18T11:14:45.271Z,99.90
2018-08-18T11:17:16.600Z,99.90
2018-08-18T11:19:47.667Z,99.90
2018-08-18T11:23:22.743Z,99.90
2018-08-18T11:25:56.313Z,99.90
2018-08-18T11:28:27.686Z,99.90
2018-08-18T11:30:58.984Z,99.90
2018-08-18T11:33:40.881Z,99.90
2018-08-18T11:36:12.544Z,99.90
2018-08-18T11:38:44.505Z,99.90
2018-08-18T11:41:15.838Z,99.90
2018-08-18T11:43:50.521Z,99.90
2018-08-18T11:46:21.771Z,99.90
2018-08-18T11:48:53.115Z,99.90
2018-08-18T11:51:30.016Z,99.90
2018-08-18T11:54:02.790Z,99.90
2018-08-18T11:57:08.544Z,99.90
2018-08-18T11:59:39.774Z,99.90
2018-08-18T12:02:10.850Z,99.90
2018-08-18T12:04:42.172Z,99.90
2018-08-18T12:07:13.274Z,99.90
2018-08-18T12:09:50.059Z,99.90
2018-08-18T12:12:21.710Z,99.90
2018-08-18T12:14:52.963Z,99.90
2018-08-18T12:17:24.066Z,99.90
2018-08-18T12:20:00.368Z,99.90
2018-08-18T12:22:34.936Z,99.90
2018-08-18T12:25:06.543Z,99.90
2018-08-18T12:27:37.669Z,99.90
2018-08-18T12:30:18.388Z,99.90
2018-08-18T12:32:49.686Z,99.90
2018-08-18T12:35:21.748Z,99.90
2018-08-18T12:37:53.047Z,99.90
2018-08-18T12:40:24.457Z,99.90
2018-08-18T12:42:56.119Z,99.90
2018-08-18T12:45:27.675Z,99.90
2018-08-18T12:48:04.796Z,99.90
2018-08-18T12:50:36.349Z,99.90
2018-08-18T12:53:07.800Z,99.90
2018-08-18T12:55:39.764Z,99.90
2018-08-18T12:58:11.066Z,99.90
2018-08-18T13:00:42.003Z,99.90
2018-08-18T13:03:13.054Z,99.90
2018-08-18T13:05:44.053Z,99.90
2018-08-18T13:08:15.222Z,99.90
2018-08-18T13:10:49.861Z,99.90
2018-08-18T13:13:20.959Z,99.90
2018-08-18T13:15:55.368Z,99.90
2018-08-18T13:18:26.666Z,99.90
2018-08-18T13:20:58.268Z,99.60
2018-08-18T13:23:30.702Z,98.80
2018-08-18T13:26:01.987Z,99.90
2018-08-18T13:28:33.952Z,99.90
2018-08-18T13:31:05.000Z,99.30
2018-08-18T13:33:40.736Z,99.90
2018-08-18T13:36:11.892Z,99.90
2018-08-18T13:38:43.060Z,99.90
2018-08-18T13:41:14.304Z,99.90
2018-08-18T13:43:47.729Z,99.90
2018-08-18T13:46:21.431Z,99.90
2018-08-18T13:48:57.391Z,99.90
2018-08-18T13:51:28.960Z,99.90
2018-08-18T13:54:02.686Z,99.90
2018-08-18T13:56:33.969Z,99.90
2018-08-18T13:59:05.040Z,99.90
2018-08-18T14:01:42.102Z,99.90
2018-08-18T14:04:21.178Z,99.90
2018-08-18T14:06:54.923Z,99.90
2018-08-18T14:09:27.048Z,99.90
2018-08-18T14:12:03.583Z,99.90
2018-08-18T14:14:34.945Z,99.90
2018-08-18T14:17:06.785Z,99.90
2018-08-18T14:19:38.395Z,99.90
2018-08-18T14:22:10.644Z,99.90
2018-08-18T14:24:42.592Z,99.90
2018-08-18T14:27:20.616Z,99.90
2018-08-18T14:29:51.898Z,99.90
2018-08-18T14:32:28.516Z,99.90
2018-08-18T14:35:08.103Z,99.90
2018-08-18T14:37:42.191Z,99.90
2018-08-18T14:40:16.721Z,99.90
2018-08-18T14:42:49.440Z,99.90
2018-08-18T14:45:29.071Z,99.90
2018-08-18T14:48:04.824Z,99.90
2018-08-18T14:50:41.361Z,99.90
2018-08-18T14:53:23.565Z,99.90
2018-08-18T14:55:57.466Z,99.90
2018-08-18T14:58:38.674Z,99.90
2018-08-18T15:01:16.956Z,99.90
2018-08-18T15:04:03.257Z,99.90
2018-08-18T15:06:41.269Z,99.90
2018-08-18T15:09:27.772Z,98.70
2018-08-18T15:11:59.580Z,99.00
2018-08-18T15:14:33.850Z,98.40
2018-08-18T15:17:06.436Z,99.20
2018-08-18T15:19:42.469Z,99.10
2018-08-18T15:22:15.263Z,99.50
2018-08-18T15:24:48.560Z,98.70
2018-08-18T15:27:21.547Z,99.00
2018-08-18T15:29:57.212Z,98.90
2018-08-18T15:32:30.004Z,99.90
2018-08-18T15:35:04.205Z,99.00
2018-08-18T15:37:38.501Z,99.00
2018-08-18T15:40:13.073Z,98.90
2018-08-18T15:42:48.342Z,98.90
2018-08-18T15:45:19.670Z,98.40
2018-08-18T15:47:51.016Z,98.10
2018-08-18T15:50:22.381Z,98.50
2018-08-18T15:52:53.883Z,98.60
2018-08-18T15:55:24.955Z,99.00
2018-08-18T15:57:56.623Z,99.40
2018-08-18T16:00:44.500Z,99.00
2018-08-18T16:03:16.121Z,98.60
2018-08-18T16:05:47.421Z,98.70
2018-08-18T16:08:18.807Z,98.50
2018-08-18T16:10:50.661Z,98.70
2018-08-18T16:13:24.316Z,98.70
2018-08-18T16:15:58.286Z,98.60
2018-08-18T16:18:34.809Z,98.80
2018-08-18T16:21:14.539Z,98.60
2018-08-18T16:23:51.859Z,98.10
2018-08-18T16:26:26.061Z,98.50
2018-08-18T16:28:58.724Z,98.10
2018-08-18T16:31:35.143Z,99.10
2018-08-18T16:34:10.676Z,98.20
2018-08-18T16:36:47.185Z,98.70
2018-08-18T16:39:21.603Z,97.60
2018-08-18T16:43:34.361Z,97.90
2018-08-18T16:46:23.083Z,97.90
2018-08-18T16:49:00.098Z,98.20
2018-08-18T16:51:35.307Z,97.90
2018-08-18T16:54:23.806Z,98.30
2018-08-18T16:57:01.515Z,98.30
2018-08-18T16:59:42.165Z,97.70
2018-08-18T17:02:31.961Z,98.50
2018-08-18T17:05:09.684Z,98.40
2018-08-18T17:07:45.293Z,98.70
2018-08-18T17:10:17.808Z,98.50
2018-08-18T17:13:00.163Z,99.30
2018-08-18T17:15:33.376Z,98.80
2018-08-18T17:18:06.403Z,98.70
2018-08-18T17:20:48.180Z,99.70
2018-08-18T17:23:22.471Z,99.70
2018-08-18T17:25:55.263Z,99.20
2018-08-18T17:28:29.919Z,99.40
2018-08-18T17:31:06.759Z,99.20
2018-08-18T17:33:37.900Z,99.10
2018-08-18T17:36:13.140Z,99.30
2018-08-18T17:38:46.576Z,99.50
2018-08-18T17:41:19.627Z,99.50
2018-08-18T17:43:51.198Z,99.30
2018-08-18T17:46:22.311Z,99.50
2018-08-18T17:48:54.228Z,99.80
2018-08-18T17:51:25.288Z,99.60
2018-08-18T17:53:56.743Z,99.70
2018-08-18T17:56:28.132Z,99.90
2018-08-18T17:58:59.541Z,99.90
2018-08-18T18:01:30.685Z,99.90
2018-08-18T18:04:01.833Z,99.90
2018-08-18T18:06:33.093Z,99.90
2018-08-18T18:09:04.923Z,99.90
2018-08-18T18:11:36.024Z,99.90
2018-08-18T18:14:07.429Z,99.90
2018-08-18T18:16:38.758Z,99.90
2018-08-18T18:19:10.295Z,99.90
2018-08-18T18:21:44.402Z,99.90
2018-08-18T18:24:16.010Z,99.90
2018-08-18T18:26:51.595Z,99.90
2018-08-18T18:29:29.040Z,99.90
2018-08-18T18:32:02.317Z,99.90
2018-08-18T18:34:34.955Z,99.90
2018-08-18T18:37:06.555Z,99.90
2018-08-18T18:39:58.912Z,99.90
2018-08-18T18:42:32.454Z,99.90
2018-08-18T18:45:04.418Z,99.90
2018-08-18T18:47:37.629Z,99.90
2018-08-18T18:50:10.403Z,99.90
2018-08-18T18:52:45.408Z,99.90
2018-08-18T18:55:21.204Z,99.90
2018-08-18T18:58:13.724Z,99.90
2018-08-18T19:01:17.098Z,99.90
2018-08-18T19:03:54.514Z,99.90
2018-08-18T19:06:46.578Z,99.90
2018-08-18T19:09:58.429Z,99.90
2018-08-18T19:12:39.594Z,99.90
2018-08-18T19:15:23.315Z,99.90
2018-08-18T19:18:04.347Z,99.90
2018-08-18T19:20:41.055Z,99.90
2018-08-18T19:23:21.987Z,99.90
2018-08-18T19:25:59.952Z,99.90
2018-08-18T19:28:36.632Z,99.90
2018-08-18T19:31:12.863Z,99.90
2018-08-18T19:33:53.891Z,99.90
2018-08-18T19:36:30.929Z,99.90
2018-08-18T19:39:10.693Z,99.90
2018-08-18T19:41:57.683Z,99.90
2018-08-18T19:44:34.104Z,99.90
2018-08-18T19:47:13.628Z,99.90
2018-08-18T19:49:46.464Z,99.90
2018-08-18T19:52:18.927Z,99.90
2018-08-18T19:54:50.996Z,99.90
2018-08-18T19:57:28.173Z,99.90
2018-08-18T20:00:34.773Z,99.90
2018-08-18T20:03:12.790Z,99.90
2018-08-18T20:05:44.094Z,99.90
2018-08-18T20:08:19.236Z,99.90
2018-08-18T20:10:55.969Z,99.90
2018-08-18T20:13:28.445Z,99.90
2018-08-18T20:16:01.737Z,99.90
2018-08-18T20:18:34.492Z,99.90
2018-08-18T20:21:09.686Z,99.90
2018-08-18T20:23:44.529Z,99.90
2018-08-18T20:26:19.451Z,99.90
2018-08-18T20:28:50.558Z,99.90
2018-08-18T20:31:26.808Z,99.90
2018-08-18T20:34:07.338Z,99.90
2018-08-18T20:36:47.802Z,99.90
2018-08-18T20:39:24.474Z,99.90
2018-08-18T20:42:03.441Z,99.90
2018-08-18T20:44:39.189Z,99.90
2018-08-18T20:47:13.731Z,99.90
2018-08-18T20:49:45.984Z,99.90
2018-08-18T20:52:21.598Z,99.90
2018-08-18T20:55:02.684Z,99.90
2018-08-18T20:57:40.369Z,99.90
2018-08-18T21:00:20.592Z,99.90
2018-08-18T21:03:00.780Z,99.90
2018-08-18T21:05:39.726Z,99.90
2018-08-18T21:08:26.560Z,99.90
2018-08-18T21:11:10.195Z,99.90
2018-08-18T21:13:56.668Z,99.90
2018-08-18T21:16:39.622Z,99.90
2018-08-18T21:19:25.235Z,99.90
2018-08-18T21:22:32.648Z,99.90
2018-08-18T21:25:14.923Z,99.90
2018-08-18T21:27:55.515Z,99.90
2018-08-18T21:30:38.560Z,99.90
2018-08-18T21:33:13.128Z,99.90
2018-08-18T21:35:56.551Z,99.90
2018-08-18T21:38:38.176Z,99.90
2018-08-18T21:41:14.701Z,99.90
2018-08-18T21:43:59.931Z,99.90
2018-08-18T21:46:37.130Z,99.90
2018-08-18T21:49:12.747Z,99.90
2018-08-18T21:51:56.629Z,99.90
2018-08-18T21:54:31.047Z,99.90
2018-08-18T21:57:25.316Z,99.90
2018-08-18T22:00:04.358Z,99.90
2018-08-18T22:02:47.897Z,99.90
2018-08-18T22:05:30.099Z,99.90
2018-08-18T22:08:10.825Z,99.90
2018-08-18T22:10:52.742Z,99.90
2018-08-18T22:16:59.665Z,99.90
2018-08-18T22:19:43.467Z,99.90
2018-08-18T22:23:09.272Z,99.90
2018-08-18T22:25:50.307Z,99.90
2018-08-18T22:28:31.270Z,99.90
2018-08-18T22:31:11.814Z,99.90
2018-08-18T22:33:52.043Z,99.90
2018-08-18T22:36:32.727Z,99.90
2018-08-18T22:39:19.184Z,99.90
2018-08-18T22:42:06.498Z,99.90
2018-08-18T22:44:50.607Z,99.90
2018-08-18T22:47:26.812Z,99.90
2018-08-18T22:50:13.591Z,99.90
2018-08-18T22:52:52.536Z,99.90
2018-08-18T22:55:43.967Z,99.90
2018-08-18T22:58:29.045Z,99.90
2018-08-18T23:01:03.818Z,99.90
2018-08-18T23:03:46.431Z,99.90
2018-08-18T23:06:25.577Z,99.90
2018-08-18T23:09:14.165Z,99.90
2018-08-18T23:12:05.528Z,99.90
2018-08-18T23:15:00.414Z,99.90
2018-08-18T23:17:33.124Z,99.90
2018-08-18T23:20:18.970Z,99.90
2018-08-18T23:23:06.598Z,99.90
2018-08-18T23:25:47.380Z,99.90
2018-08-18T23:28:25.809Z,99.90
2018-08-18T23:31:01.788Z,99.90
2018-08-18T23:33:37.314Z,99.90
2018-08-18T23:36:21.583Z,99.90
2018-08-18T23:38:59.312Z,99.90
2018-08-18T23:41:31.975Z,99.90
2018-08-18T23:44:13.944Z,99.90
2018-08-18T23:46:48.859Z,99.90
2018-08-18T23:49:20.332Z,99.90
2018-08-18T23:51:51.468Z,99.90
2018-08-18T23:54:25.172Z,99.90
2018-08-18T23:56:56.655Z,99.90
2018-08-18T23:59:28.108Z,99.90
